createdAt,value
2018-02-08T00:00:37.611Z,990.27
2018-02-08T00:01:37.603Z,990.29
2018-02-08T00:02:37.596Z,990.28
2018-02-08T00:03:37.584Z,990.31
2018-02-08T00:04:37.578Z,990.34
2018-02-08T00:05:37.558Z,990.33
2018-02-08T00:06:37.549Z,990.32
2018-02-08T00:07:37.544Z,990.29
2018-02-08T00:08:37.529Z,990.31
2018-02-08T00:09:37.524Z,990.29
2018-02-08T00:10:37.510Z,990.27
2018-02-08T00:11:37.501Z,990.24
2018-02-08T00:12:37.488Z,990.3
2018-02-08T00:13:37.476Z,990.23
2018-02-08T00:14:37.468Z,990.24
2018-02-08T00:15:37.465Z,990.24
2018-02-08T00:16:37.446Z,990.24
2018-02-08T00:17:37.435Z,990.24
2018-02-08T00:18:37.426Z,990.21
2018-02-08T00:19:37.416Z,990.21
2018-02-08T00:20:37.423Z,990.2
2018-02-08T00:21:37.394Z,990.23
2018-02-08T00:22:37.384Z,990.24
2018-02-08T00:23:37.373Z,990.22
2018-02-08T00:24:37.369Z,990.24
2018-02-08T00:25:37.359Z,990.24
2018-02-08T00:26:37.344Z,990.24
2018-02-08T00:27:37.333Z,990.26
2018-02-08T00:28:37.326Z,990.29
2018-02-08T00:29:37.316Z,990.25
2018-02-08T00:30:37.305Z,990.29
2018-02-08T00:31:37.293Z,990.27
2018-02-08T00:32:37.282Z,990.28
2018-02-08T00:33:37.271Z,990.29
2018-02-08T00:34:37.263Z,990.3
2018-02-08T00:35:37.249Z,990.29
2018-02-08T00:36:37.248Z,990.32
2018-02-08T00:37:37.229Z,990.33
2018-02-08T00:38:37.218Z,990.29
2018-02-08T00:39:37.212Z,990.32
2018-02-08T00:40:37.197Z,990.28
2018-02-08T00:41:37.187Z,990.3
2018-02-08T00:42:37.178Z,990.3
2018-02-08T00:43:37.167Z,990.3
2018-02-08T00:44:37.156Z,990.29
2018-02-08T00:45:37.145Z,990.27
2018-02-08T00:46:37.144Z,990.29
2018-02-08T00:47:37.125Z,990.33
2018-02-08T00:48:37.113Z,990.29
2018-02-08T00:49:37.105Z,990.28
2018-02-08T00:50:37.092Z,990.28
2018-02-08T00:51:37.086Z,990.29
2018-02-08T00:52:37.073Z,990.26
2018-02-08T00:53:37.065Z,990.3
2018-02-08T00:54:37.052Z,990.27
2018-02-08T00:55:37.043Z,990.24
2018-02-08T00:56:37.032Z,990.28
2018-02-08T00:57:37.020Z,990.27
2018-02-08T00:58:37.010Z,990.29
2018-02-08T00:59:37.000Z,990.3
2018-02-08T01:00:36.988Z,990.29
2018-02-08T01:01:36.980Z,990.26
2018-02-08T01:02:36.969Z,990.3
2018-02-08T01:03:36.957Z,990.3
2018-02-08T01:04:36.949Z,990.34
2018-02-08T01:05:36.938Z,990.31
2018-02-08T01:06:36.931Z,990.34
2018-02-08T01:07:36.918Z,990.35
2018-02-08T01:08:36.905Z,990.35
2018-02-08T01:09:36.897Z,990.32
2018-02-08T01:10:36.886Z,990.39
2018-02-08T01:11:36.886Z,990.38
2018-02-08T01:12:36.896Z,990.35
2018-02-08T01:13:36.853Z,990.37
2018-02-08T01:14:36.845Z,990.36
2018-02-08T01:15:36.831Z,990.37
2018-02-08T01:16:36.820Z,990.38
2018-02-08T01:17:36.811Z,990.38
2018-02-08T01:18:36.802Z,990.38
2018-02-08T01:19:36.788Z,990.39
2018-02-08T01:20:36.778Z,990.39
2018-02-08T01:21:36.774Z,990.37
2018-02-08T01:22:36.756Z,990.4
2018-02-08T01:23:36.748Z,990.41
2018-02-08T01:24:36.735Z,990.41
2018-02-08T01:25:36.725Z,990.42
2018-02-08T01:26:36.712Z,990.44
2018-02-08T01:27:36.706Z,990.43
2018-02-08T01:28:36.693Z,990.43
2018-02-08T01:29:36.682Z,990.4
2018-02-08T01:30:36.671Z,990.39
2018-02-08T01:31:36.662Z,990.4
2018-02-08T01:32:36.650Z,990.42
2018-02-08T01:33:36.638Z,990.42
2018-02-08T01:34:36.628Z,990.37
2018-02-08T01:35:36.618Z,990.37
2018-02-08T01:36:36.608Z,990.35
2018-02-08T01:37:36.595Z,990.4
2018-02-08T01:38:36.591Z,990.39
2018-02-08T01:39:36.573Z,990.38
2018-02-08T01:40:36.570Z,990.42
2018-02-08T01:41:36.555Z,990.46
2018-02-08T01:42:36.542Z,990.41
2018-02-08T01:43:36.538Z,990.39
2018-02-08T01:44:36.534Z,990.4
2018-02-08T01:45:36.514Z,990.43
2018-02-08T01:46:36.502Z,990.42
2018-02-08T01:47:36.487Z,990.36
2018-02-08T01:48:36.478Z,990.39
2018-02-08T01:49:36.475Z,990.39
2018-02-08T01:50:36.456Z,990.38
2018-02-08T01:51:36.447Z,990.4
2018-02-08T01:52:36.434Z,990.39
2018-02-08T01:53:36.424Z,990.42
2018-02-08T01:54:36.413Z,990.4
2018-02-08T01:55:36.403Z,990.42
2018-02-08T01:56:36.391Z,990.41
2018-02-08T01:57:36.380Z,990.42
2018-02-08T01:58:36.374Z,990.42
2018-02-08T01:59:36.359Z,990.44
2018-02-08T02:00:36.348Z,990.41
2018-02-08T02:01:36.338Z,990.4
2018-02-08T02:02:36.326Z,990.4
2018-02-08T02:03:36.315Z,990.4
2018-02-08T02:04:36.308Z,990.44
2018-02-08T02:05:36.294Z,990.43
2018-02-08T02:06:36.283Z,990.39
2018-02-08T02:07:36.272Z,990.37
2018-02-08T02:08:36.262Z,990.39
2018-02-08T02:09:36.250Z,990.41
2018-02-08T02:10:36.239Z,990.4
2018-02-08T02:11:36.228Z,990.39
2018-02-08T02:12:36.225Z,990.39
2018-02-08T02:13:36.206Z,990.38
2018-02-08T02:14:36.197Z,990.4
2018-02-08T02:15:36.185Z,990.41
2018-02-08T02:16:36.179Z,990.39
2018-02-08T02:17:36.163Z,990.4
2018-02-08T02:18:36.153Z,990.38
2018-02-08T02:19:36.144Z,990.36
2018-02-08T02:20:36.133Z,990.4
2018-02-08T02:21:36.120Z,990.43
2018-02-08T02:22:36.110Z,990.41
2018-02-08T02:23:36.100Z,990.4
2018-02-08T02:24:36.088Z,990.41
2018-02-08T02:25:36.080Z,990.39
2018-02-08T02:26:36.068Z,990.39
2018-02-08T02:27:36.057Z,990.42
2018-02-08T02:28:36.047Z,990.44
2018-02-08T02:29:36.036Z,990.42
2018-02-08T02:30:36.031Z,990.49
2018-02-08T02:31:36.014Z,990.48
2018-02-08T02:32:36.002Z,990.43
2018-02-08T02:33:35.991Z,990.46
2018-02-08T02:34:35.981Z,990.45
2018-02-08T02:35:35.970Z,990.45
2018-02-08T02:36:35.971Z,990.44
2018-02-08T02:37:40.806Z,990.46
2018-02-08T02:38:35.944Z,990.46
2018-02-08T02:39:35.927Z,990.45
2018-02-08T02:40:35.925Z,990.42
2018-02-08T02:41:35.918Z,990.41
2018-02-08T02:42:35.893Z,990.39
2018-02-08T02:43:35.883Z,990.39
2018-02-08T02:44:35.881Z,990.43
2018-02-08T02:45:35.864Z,990.46
2018-02-08T02:46:35.852Z,990.44
2018-02-08T02:47:35.841Z,990.46
2018-02-08T02:48:35.830Z,990.49
2018-02-08T02:49:35.820Z,990.49
2018-02-08T02:50:35.811Z,990.48
2018-02-08T02:51:35.797Z,990.54
2018-02-08T02:52:35.787Z,990.56
2018-02-08T02:53:35.775Z,990.51
2018-02-08T02:54:35.765Z,990.52
2018-02-08T02:55:35.795Z,990.54
2018-02-08T02:56:35.743Z,990.52
2018-02-08T02:57:35.733Z,990.52
2018-02-08T02:58:35.722Z,990.56
2018-02-08T02:59:35.713Z,990.53
2018-02-08T03:00:35.701Z,990.57
2018-02-08T03:01:35.690Z,990.62
2018-02-08T03:02:35.677Z,990.56
2018-02-08T03:03:35.669Z,990.63
2018-02-08T03:04:35.661Z,990.59
2018-02-08T03:05:35.651Z,990.6
2018-02-08T03:06:35.637Z,990.62
2018-02-08T03:07:35.625Z,990.59
2018-02-08T03:08:35.616Z,990.55
2018-02-08T03:09:35.603Z,990.54
2018-02-08T03:10:35.597Z,990.53
2018-02-08T03:11:35.582Z,990.48
2018-02-08T03:12:35.571Z,990.5
2018-02-08T03:13:35.561Z,990.53
2018-02-08T03:14:35.550Z,990.5
2018-02-08T03:15:35.539Z,990.54
2018-02-08T03:16:35.528Z,990.52
2018-02-08T03:17:35.525Z,990.53
2018-02-08T03:18:35.510Z,990.55
2018-02-08T03:19:35.497Z,990.58
2018-02-08T03:20:35.486Z,990.59
2018-02-08T03:21:35.474Z,990.61
2018-02-08T03:22:35.475Z,990.59
2018-02-08T03:23:35.454Z,990.61
2018-02-08T03:24:35.445Z,990.61
2018-02-08T03:25:35.436Z,990.61
2018-02-08T03:26:35.421Z,990.59
2018-02-08T03:27:35.410Z,990.64
2018-02-08T03:28:35.400Z,990.63
2018-02-08T03:29:35.391Z,990.63
2018-02-08T03:30:35.384Z,990.64
2018-02-08T03:31:35.368Z,990.64
2018-02-08T03:32:35.356Z,990.61
2018-02-08T03:33:35.347Z,990.6
2018-02-08T03:34:35.334Z,990.61
2018-02-08T03:35:35.335Z,990.61
2018-02-08T03:36:35.314Z,990.63
2018-02-08T03:37:35.304Z,990.67
2018-02-08T03:38:35.293Z,990.64
2018-02-08T03:39:35.283Z,990.65
2018-02-08T03:40:35.273Z,990.68
2018-02-08T03:41:35.261Z,990.65
2018-02-08T03:42:35.252Z,990.61
2018-02-08T03:43:35.240Z,990.66
2018-02-08T03:44:35.229Z,990.7
2018-02-08T03:45:35.219Z,990.71
2018-02-08T03:46:35.211Z,990.72
2018-02-08T03:47:35.200Z,990.76
2018-02-08T03:48:35.190Z,990.74
2018-02-08T03:49:35.176Z,990.73
2018-02-08T03:50:35.170Z,990.77
2018-02-08T03:51:35.158Z,990.78
2018-02-08T03:52:35.146Z,990.78
2018-02-08T03:53:35.141Z,990.74
2018-02-08T03:54:35.125Z,990.78
2018-02-08T03:55:35.114Z,990.78
2018-02-08T03:56:35.105Z,990.8
2018-02-08T03:57:35.093Z,990.77
2018-02-08T03:58:35.084Z,990.84
2018-02-08T03:59:35.073Z,990.83
2018-02-08T04:00:35.157Z,990.82
2018-02-08T04:01:35.052Z,990.83
2018-02-08T04:02:35.043Z,990.89
2018-02-08T04:03:35.029Z,990.86
2018-02-08T04:04:35.020Z,990.91
2018-02-08T04:05:35.078Z,990.91
2018-02-08T04:06:35.010Z,990.95
2018-02-08T04:07:34.988Z,990.97
2018-02-08T04:08:34.977Z,990.96
2018-02-08T04:09:35.216Z,990.98
2018-02-08T04:10:34.957Z,991.01
2018-02-08T04:11:34.944Z,991.03
2018-02-08T04:12:34.943Z,991
2018-02-08T04:13:34.927Z,991.05
2018-02-08T04:14:34.921Z,991
2018-02-08T04:15:34.902Z,991.04
2018-02-08T04:16:34.893Z,991.03
2018-02-08T04:17:34.882Z,991.01
2018-02-08T04:18:34.875Z,991.02
2018-02-08T04:19:34.861Z,991.06
2018-02-08T04:20:34.849Z,991.05
2018-02-08T04:21:34.838Z,991.03
2018-02-08T04:22:34.826Z,991.06
2018-02-08T04:23:34.817Z,991.05
2018-02-08T04:24:34.805Z,991.07
2018-02-08T04:25:34.793Z,991.08
2018-02-08T04:26:34.783Z,991.08
2018-02-08T04:27:34.773Z,991.13
2018-02-08T04:28:34.760Z,991.1
2018-02-08T04:29:34.750Z,991.13
2018-02-08T04:30:34.740Z,991.15
2018-02-08T04:31:34.729Z,991.15
2018-02-08T04:32:34.715Z,991.12
2018-02-08T04:33:34.707Z,991.15
2018-02-08T04:34:34.696Z,991.17
2018-02-08T04:35:34.685Z,991.15
2018-02-08T04:36:34.672Z,991.12
2018-02-08T04:37:34.662Z,991.17
2018-02-08T04:38:34.650Z,991.16
2018-02-08T04:39:34.639Z,991.17
2018-02-08T04:40:34.637Z,991.2
2018-02-08T04:41:34.619Z,991.18
2018-02-08T04:42:34.606Z,991.19
2018-02-08T04:43:34.594Z,991.22
2018-02-08T04:44:34.588Z,991.21
2018-02-08T04:45:34.591Z,991.25
2018-02-08T04:46:34.563Z,991.23
2018-02-08T04:47:34.550Z,991.24
2018-02-08T04:48:34.541Z,991.25
2018-02-08T04:49:34.529Z,991.26
2018-02-08T04:50:34.527Z,991.32
2018-02-08T04:51:34.508Z,991.28
2018-02-08T04:52:34.497Z,991.28
2018-02-08T04:53:34.486Z,991.3
2018-02-08T04:54:34.476Z,991.27
2018-02-08T04:55:34.465Z,991.3
2018-02-08T04:56:34.456Z,991.27
2018-02-08T04:57:34.443Z,991.33
2018-02-08T04:58:34.431Z,991.35
2018-02-08T04:59:34.421Z,991.31
2018-02-08T05:00:34.410Z,991.35
2018-02-08T05:01:34.398Z,991.37
2018-02-08T05:02:34.387Z,991.37
2018-02-08T05:03:34.376Z,991.37
2018-02-08T05:04:34.366Z,991.39
2018-02-08T05:05:34.354Z,991.39
2018-02-08T05:06:34.341Z,991.36
2018-02-08T05:07:34.332Z,991.4
2018-02-08T05:08:34.322Z,991.42
2018-02-08T05:09:34.312Z,991.41
2018-02-08T05:10:35.352Z,991.42
2018-02-08T05:11:34.287Z,991.43
2018-02-08T05:12:34.275Z,991.45
2018-02-08T05:13:34.264Z,991.43
2018-02-08T05:14:34.253Z,991.48
2018-02-08T05:15:34.244Z,991.47
2018-02-08T05:16:34.236Z,991.49
2018-02-08T05:17:34.219Z,991.51
2018-02-08T05:18:34.243Z,991.5
2018-02-08T05:19:34.198Z,991.48
2018-02-08T05:20:34.185Z,991.49
2018-02-08T05:21:34.179Z,991.48
2018-02-08T05:22:34.163Z,991.44
2018-02-08T05:23:34.157Z,991.53
2018-02-08T05:24:34.141Z,991.51
2018-02-08T05:25:34.130Z,991.54
2018-02-08T05:26:34.119Z,991.51
2018-02-08T05:27:34.109Z,991.57
2018-02-08T05:28:34.096Z,991.57
2018-02-08T05:29:34.084Z,991.6
2018-02-08T05:30:34.074Z,991.6
2018-02-08T05:31:34.062Z,991.62
2018-02-08T05:32:34.050Z,991.63
2018-02-08T05:33:34.039Z,991.61
2018-02-08T05:34:34.032Z,991.61
2018-02-08T05:35:34.016Z,991.64
2018-02-08T05:36:34.005Z,991.62
2018-02-08T05:37:33.994Z,991.61
2018-02-08T05:38:33.983Z,991.65
2018-02-08T05:39:33.990Z,991.66
2018-02-08T05:40:33.961Z,991.71
2018-02-08T05:41:33.950Z,991.72
2018-02-08T05:42:33.938Z,991.69
2018-02-08T05:43:33.928Z,991.71
2018-02-08T05:44:33.919Z,991.71
2018-02-08T05:45:33.904Z,991.73
2018-02-08T05:46:33.895Z,991.76
2018-02-08T05:47:33.884Z,991.76
2018-02-08T05:48:33.871Z,991.78
2018-02-08T05:49:33.859Z,991.79
2018-02-08T05:50:33.848Z,991.79
2018-02-08T05:51:33.839Z,991.83
2018-02-08T05:52:33.829Z,991.8
2018-02-08T05:53:33.815Z,991.83
2018-02-08T05:54:33.808Z,991.82
2018-02-08T05:55:33.803Z,991.81
2018-02-08T05:56:33.780Z,991.77
2018-02-08T05:57:33.769Z,991.78
2018-02-08T05:58:33.759Z,991.82
2018-02-08T05:59:33.756Z,991.79
2018-02-08T06:00:33.734Z,991.79
2018-02-08T06:01:33.723Z,991.83
2018-02-08T06:02:33.713Z,991.8
2018-02-08T06:03:33.705Z,991.81
2018-02-08T06:04:33.701Z,991.79
2018-02-08T06:05:33.721Z,991.87
2018-02-08T06:06:33.669Z,991.89
2018-02-08T06:07:33.655Z,991.87
2018-02-08T06:08:33.644Z,991.85
2018-02-08T06:09:33.641Z,991.87
2018-02-08T06:10:33.620Z,991.84
2018-02-08T06:11:33.611Z,991.92
2018-02-08T06:12:33.599Z,991.89
2018-02-08T06:13:33.593Z,991.93
2018-02-08T06:14:33.582Z,991.91
2018-02-08T06:15:33.563Z,991.87
2018-02-08T06:16:33.554Z,991.91
2018-02-08T06:17:33.544Z,991.9
2018-02-08T06:18:33.530Z,991.91
2018-02-08T06:19:33.519Z,991.94
2018-02-08T06:20:33.509Z,991.96
2018-02-08T06:21:33.498Z,991.92
2018-02-08T06:22:33.485Z,991.96
2018-02-08T06:23:33.476Z,991.95
2018-02-08T06:24:33.468Z,991.95
2018-02-08T06:25:33.451Z,991.89
2018-02-08T06:26:33.439Z,991.98
2018-02-08T06:27:33.429Z,991.95
2018-02-08T06:28:33.418Z,991.92
2018-02-08T06:29:33.411Z,991.96
2018-02-08T06:30:33.397Z,991.96
2018-02-08T06:31:33.384Z,991.97
2018-02-08T06:32:33.373Z,991.96
2018-02-08T06:33:33.361Z,991.96
2018-02-08T06:34:33.350Z,991.99
2018-02-08T06:35:33.342Z,991.94
2018-02-08T06:36:33.327Z,991.96
2018-02-08T06:37:33.315Z,992.01
2018-02-08T06:38:33.314Z,991.96
2018-02-08T06:39:33.310Z,992
2018-02-08T06:40:33.368Z,991.99
2018-02-08T06:41:33.283Z,992.05
2018-02-08T06:42:35.161Z,991.98
2018-02-08T06:43:33.260Z,992.06
2018-02-08T06:44:33.242Z,992.04
2018-02-08T06:45:33.243Z,992.05
2018-02-08T06:46:33.235Z,992.05
2018-02-08T06:47:33.205Z,992.04
2018-02-08T06:48:33.197Z,992.07
2018-02-08T06:49:33.189Z,992.07
2018-02-08T06:50:33.171Z,992.06
2018-02-08T06:51:33.163Z,992.08
2018-02-08T06:52:33.146Z,992.11
2018-02-08T06:53:33.149Z,992.13
2018-02-08T06:54:33.127Z,992.14
2018-02-08T06:55:33.122Z,992.16
2018-02-08T06:56:33.112Z,992.2
2018-02-08T06:57:33.098Z,992.13
2018-02-08T06:58:33.079Z,992.19
2018-02-08T06:59:33.069Z,992.17
2018-02-08T07:00:33.058Z,992.22
2018-02-08T07:01:33.049Z,992.26
2018-02-08T07:02:33.034Z,992.21
2018-02-08T07:03:33.021Z,992.25
2018-02-08T07:04:33.008Z,992.29
2018-02-08T07:05:32.999Z,992.27
2018-02-08T07:06:32.991Z,992.31
2018-02-08T07:07:32.974Z,992.32
2018-02-08T07:08:32.962Z,992.32
2018-02-08T07:09:32.951Z,992.37
2018-02-08T07:10:32.940Z,992.39
2018-02-08T07:11:32.940Z,992.38
2018-02-08T07:12:32.918Z,992.43
2018-02-08T07:13:32.904Z,992.44
2018-02-08T07:14:32.894Z,992.47
2018-02-08T07:15:32.889Z,992.42
2018-02-08T07:16:32.880Z,992.47
2018-02-08T07:17:32.859Z,992.45
2018-02-08T07:18:32.848Z,992.49
2018-02-08T07:19:32.837Z,992.48
2018-02-08T07:20:32.825Z,992.52
2018-02-08T07:21:32.815Z,992.54
2018-02-08T07:22:32.803Z,992.48
2018-02-08T07:23:32.800Z,992.5
2018-02-08T07:24:32.779Z,992.5
2018-02-08T07:25:32.768Z,992.54
2018-02-08T07:26:32.756Z,992.51
2018-02-08T07:27:32.746Z,992.52
2018-02-08T07:28:35.938Z,992.54
2018-02-08T07:29:32.723Z,992.55
2018-02-08T07:30:32.719Z,992.56
2018-02-08T07:31:32.700Z,992.58
2018-02-08T07:32:32.689Z,992.56
2018-02-08T07:33:32.678Z,992.55
2018-02-08T07:34:32.667Z,992.53
2018-02-08T07:35:32.661Z,992.57
2018-02-08T07:36:32.643Z,992.6
2018-02-08T07:37:32.636Z,992.59
2018-02-08T07:38:32.619Z,992.66
2018-02-08T07:39:32.608Z,992.64
2018-02-08T07:40:32.598Z,992.68
2018-02-08T07:41:32.594Z,992.64
2018-02-08T07:42:32.575Z,992.69
2018-02-08T07:43:32.563Z,992.67
2018-02-08T07:44:32.552Z,992.72
2018-02-08T07:45:32.541Z,992.69
2018-02-08T07:46:32.535Z,992.7
2018-02-08T07:47:32.518Z,992.71
2018-02-08T07:48:32.509Z,992.73
2018-02-08T07:49:32.496Z,992.72
2018-02-08T07:50:32.483Z,992.74
2018-02-08T07:51:32.473Z,992.74
2018-02-08T07:52:32.462Z,992.73
2018-02-08T07:53:32.450Z,992.68
2018-02-08T07:54:32.437Z,992.74
2018-02-08T07:55:32.429Z,992.77
2018-02-08T07:56:32.416Z,992.77
2018-02-08T07:57:32.403Z,992.79
2018-02-08T07:58:32.393Z,992.76
2018-02-08T07:59:32.382Z,992.78
2018-02-08T08:00:32.370Z,992.77
2018-02-08T08:01:32.358Z,992.72
2018-02-08T08:02:32.452Z,992.73
2018-02-08T08:03:32.338Z,992.73
2018-02-08T08:04:32.333Z,992.69
2018-02-08T08:05:32.314Z,992.69
2018-02-08T08:06:32.303Z,992.72
2018-02-08T08:07:32.291Z,992.73
2018-02-08T08:08:32.288Z,992.72
2018-02-08T08:09:32.270Z,992.7
2018-02-08T08:10:32.259Z,992.68
2018-02-08T08:11:32.246Z,992.7
2018-02-08T08:12:32.238Z,992.74
2018-02-08T08:13:32.225Z,992.75
2018-02-08T08:14:32.219Z,992.67
2018-02-08T08:15:32.207Z,992.71
2018-02-08T08:16:32.193Z,992.72
2018-02-08T08:17:32.180Z,992.69
2018-02-08T08:18:32.169Z,992.72
2018-02-08T08:19:32.157Z,992.71
2018-02-08T08:20:32.159Z,992.69
2018-02-08T08:21:32.140Z,992.68
2018-02-08T08:22:32.124Z,992.67
2018-02-08T08:23:32.114Z,992.67
2018-02-08T08:24:32.102Z,992.67
2018-02-08T08:25:32.093Z,992.67
2018-02-08T08:26:32.079Z,992.68
2018-02-08T08:27:32.069Z,992.73
2018-02-08T08:28:32.058Z,992.74
2018-02-08T08:29:32.097Z,992.75
2018-02-08T08:30:32.035Z,992.74
2018-02-08T08:31:32.033Z,992.75
2018-02-08T08:32:32.015Z,992.75
2018-02-08T08:33:32.005Z,992.82
2018-02-08T08:34:31.992Z,992.84
2018-02-08T08:35:31.990Z,992.82
2018-02-08T08:36:31.970Z,992.83
2018-02-08T08:37:31.966Z,992.84
2018-02-08T08:38:31.947Z,992.83
2018-02-08T08:39:31.937Z,992.89
2018-02-08T08:40:31.928Z,992.88
2018-02-08T08:41:31.916Z,992.86
2018-02-08T08:42:31.908Z,992.89
2018-02-08T08:43:31.895Z,992.88
2018-02-08T08:44:31.926Z,992.8
2018-02-08T08:45:31.873Z,992.86
2018-02-08T08:46:31.865Z,992.84
2018-02-08T08:47:31.852Z,992.85
2018-02-08T08:48:31.841Z,992.91
2018-02-08T08:49:31.835Z,992.92
2018-02-08T08:50:31.856Z,992.92
2018-02-08T08:51:31.812Z,992.91
2018-02-08T08:52:31.807Z,992.97
2018-02-08T08:53:31.794Z,992.96
2018-02-08T08:54:31.798Z,992.97
2018-02-08T08:55:31.787Z,992.98
2018-02-08T08:56:31.782Z,993.03
2018-02-08T08:57:31.766Z,993.01
2018-02-08T08:58:31.807Z,993.01
2018-02-08T08:59:31.755Z,993.04
2018-02-08T09:00:31.720Z,993.07
2018-02-08T09:01:31.733Z,993.05
2018-02-08T09:02:31.721Z,993.11
2018-02-08T09:03:31.698Z,993.09
2018-02-08T09:04:31.689Z,993.1
2018-02-08T09:05:31.685Z,993.05
2018-02-08T09:06:31.656Z,993.07
2018-02-08T09:07:31.653Z,993.13
2018-02-08T09:08:31.646Z,993.14
2018-02-08T09:09:31.623Z,993.15
2018-02-08T09:10:31.624Z,993.13
2018-02-08T09:11:31.612Z,993.15
2018-02-08T09:12:31.599Z,993.15
2018-02-08T09:13:31.590Z,993.17
2018-02-08T09:14:31.567Z,993.15
2018-02-08T09:15:31.615Z,993.16
2018-02-08T09:16:31.553Z,993.2
2018-02-08T09:17:31.545Z,993.16
2018-02-08T09:18:31.538Z,993.17
2018-02-08T09:19:31.536Z,993.17
2018-02-08T09:20:31.526Z,993.16
2018-02-08T09:21:31.497Z,993.22
2018-02-08T09:22:31.485Z,993.19
2018-02-08T09:23:31.477Z,993.2
2018-02-08T09:24:31.472Z,993.18
2018-02-08T09:25:31.459Z,993.19
2018-02-08T09:26:31.447Z,993.22
2018-02-08T09:27:31.436Z,993.2
2018-02-08T09:28:31.426Z,993.22
2018-02-08T09:29:31.415Z,993.22
2018-02-08T09:30:31.408Z,993.24
2018-02-08T09:31:31.403Z,993.25
2018-02-08T09:32:31.390Z,993.23
2018-02-08T09:33:31.379Z,993.25
2018-02-08T09:34:31.368Z,993.2
2018-02-08T09:35:31.358Z,993.23
2018-02-08T09:36:31.412Z,993.23
2018-02-08T09:37:31.340Z,993.23
2018-02-08T09:38:31.354Z,993.24
2018-02-08T09:39:31.327Z,993.23
2018-02-08T09:40:31.418Z,993.24
2018-02-08T09:41:31.304Z,993.22
2018-02-08T09:42:31.298Z,993.21
2018-02-08T09:43:31.287Z,993.23
2018-02-08T09:44:31.277Z,993.23
2018-02-08T09:45:32.319Z,993.21
2018-02-08T09:46:31.263Z,993.18
2018-02-08T09:47:31.249Z,993.26
2018-02-08T09:48:31.241Z,993.24
2018-02-08T09:49:31.231Z,993.21
2018-02-08T09:50:31.232Z,993.17
2018-02-08T09:51:31.214Z,993.19
2018-02-08T09:52:31.205Z,993.18
2018-02-08T09:53:31.196Z,993.22
2018-02-08T09:54:31.187Z,993.19
2018-02-08T09:55:31.179Z,993.23
2018-02-08T09:56:31.177Z,993.25
2018-02-08T09:57:31.162Z,993.21
2018-02-08T09:58:31.152Z,993.26
2018-02-08T09:59:31.145Z,993.28
2018-02-08T10:00:31.136Z,993.27
2018-02-08T10:01:31.128Z,993.26
2018-02-08T10:02:31.146Z,993.28
2018-02-08T10:03:31.111Z,993.26
2018-02-08T10:04:31.107Z,993.29
2018-02-08T10:05:31.094Z,993.34
2018-02-08T10:06:31.086Z,993.33
2018-02-08T10:07:31.077Z,993.34
2018-02-08T10:08:31.068Z,993.35
2018-02-08T10:09:31.060Z,993.36
2018-02-08T10:10:31.053Z,993.34
2018-02-08T10:11:31.043Z,993.36
2018-02-08T10:12:31.035Z,993.34
2018-02-08T10:13:31.027Z,993.33
2018-02-08T10:14:31.021Z,993.33
2018-02-08T10:15:31.009Z,993.36
2018-02-08T10:16:30.999Z,993.36
2018-02-08T10:17:30.991Z,993.4
2018-02-08T10:18:30.982Z,993.37
2018-02-08T10:19:30.973Z,993.38
2018-02-08T10:20:30.973Z,993.36
2018-02-08T10:21:30.957Z,993.35
2018-02-08T10:22:30.948Z,993.35
2018-02-08T10:23:30.939Z,993.37
2018-02-08T10:53:31.796Z,993.37
2018-02-08T10:54:30.159Z,993.42
2018-02-08T10:55:30.146Z,993.39
2018-02-08T10:56:30.131Z,993.36
2018-02-08T10:57:30.118Z,993.35
2018-02-08T10:58:30.111Z,993.39
2018-02-08T10:59:30.097Z,993.38
2018-02-08T11:00:30.083Z,993.38
2018-02-08T11:01:30.075Z,993.38
2018-02-08T11:02:30.063Z,993.35
2018-02-08T11:03:30.051Z,993.35
2018-02-08T11:04:30.042Z,993.35
2018-02-08T11:05:30.034Z,993.4
2018-02-08T11:06:30.024Z,993.38
2018-02-08T11:07:30.013Z,993.33
2018-02-08T11:08:30.008Z,993.36
2018-02-08T11:09:29.995Z,993.31
2018-02-08T11:10:29.986Z,993.33
2018-02-08T11:11:29.977Z,993.32
2018-02-08T11:12:29.968Z,993.32
2018-02-08T11:13:29.960Z,993.31
2018-02-08T11:14:29.950Z,993.29
2018-02-08T11:15:29.943Z,993.25
2018-02-08T11:16:29.940Z,993.3
2018-02-08T11:17:29.926Z,993.27
2018-02-08T11:18:29.917Z,993.27
2018-02-08T11:19:29.909Z,993.26
2018-02-08T11:20:29.900Z,993.27
2018-02-08T11:21:29.892Z,993.27
2018-02-08T11:22:29.883Z,993.23
2018-02-08T11:23:29.876Z,993.23
2018-02-08T11:24:29.868Z,993.21
2018-02-08T11:25:29.975Z,993.23
2018-02-08T11:26:29.850Z,993.19
2018-02-08T11:27:29.842Z,993.19
2018-02-08T11:28:29.838Z,993.16
2018-02-08T11:29:29.826Z,993.11
2018-02-08T11:30:29.821Z,993.1
2018-02-08T11:31:29.809Z,993.15
2018-02-08T11:32:29.801Z,993.15
2018-02-08T11:33:29.793Z,993.1
2018-02-08T11:34:29.786Z,993.1
2018-02-08T11:35:29.827Z,993.1
2018-02-08T11:36:29.770Z,993.09
2018-02-08T11:37:29.759Z,993.05
2018-02-08T11:38:29.750Z,993.11
2018-02-08T11:39:29.743Z,993.13
2018-02-08T11:40:29.733Z,993.13
2018-02-08T11:41:29.728Z,993.1
2018-02-08T11:42:29.723Z,993.08
2018-02-08T11:43:29.709Z,993.06
2018-02-08T11:44:29.700Z,993.08
2018-02-08T11:45:29.693Z,993.08
2018-02-08T11:46:29.688Z,993.03
2018-02-08T11:47:29.674Z,993.06
2018-02-08T11:48:29.666Z,993.06
2018-02-08T11:49:29.658Z,993.09
2018-02-08T11:50:29.652Z,993.1
2018-02-08T11:51:29.641Z,993.11
2018-02-08T11:52:29.632Z,993.11
2018-02-08T11:53:29.623Z,993.09
2018-02-08T11:54:29.615Z,993.11
2018-02-08T11:55:29.607Z,993.08
2018-02-08T11:56:29.599Z,993.11
2018-02-08T11:57:29.593Z,993.12
2018-02-08T11:58:29.582Z,993.09
2018-02-08T11:59:29.570Z,993.15
2018-02-08T12:00:29.562Z,993.15
2018-02-08T12:01:29.562Z,993.13
2018-02-08T12:02:29.546Z,993.14
2018-02-08T12:03:29.541Z,993.16
2018-02-08T12:04:29.529Z,993.09
2018-02-08T12:05:29.518Z,993.12
2018-02-08T12:06:29.509Z,993.13
2018-02-08T12:07:29.503Z,993.12
2018-02-08T12:08:29.499Z,993.13
2018-02-08T12:09:29.485Z,993.09
2018-02-08T12:10:29.474Z,993.1
2018-02-08T12:11:29.462Z,993.12
2018-02-08T12:12:29.453Z,993.13
2018-02-08T12:13:29.446Z,993.12
2018-02-08T12:14:29.434Z,993.09
2018-02-08T12:15:29.426Z,993.1
2018-02-08T12:16:29.417Z,993.08
2018-02-08T12:17:29.409Z,993.13
2018-02-08T12:18:29.398Z,993.1
2018-02-08T12:19:29.390Z,993.09
2018-02-08T12:20:29.381Z,993.09
2018-02-08T12:21:29.373Z,993.04
2018-02-08T12:22:29.378Z,993.07
2018-02-08T12:23:29.356Z,993.09
2018-02-08T12:24:29.596Z,993.06
2018-02-08T12:25:29.338Z,993
2018-02-08T12:26:29.330Z,993.01
2018-02-08T12:27:29.325Z,993.04
2018-02-08T12:28:29.314Z,993.04
2018-02-08T12:29:29.305Z,993.03
2018-02-08T12:30:29.366Z,993.02
2018-02-08T12:31:29.293Z,993.03
2018-02-08T12:32:29.279Z,993.02
2018-02-08T12:33:29.271Z,993.01
2018-02-08T12:34:29.265Z,993.01
2018-02-08T12:35:29.326Z,993
2018-02-08T12:36:29.248Z,992.98
2018-02-08T12:37:29.240Z,992.95
2018-02-08T12:38:29.237Z,992.96
2018-02-08T12:39:29.221Z,992.97
2018-02-08T12:40:29.246Z,992.89
2018-02-08T12:41:29.211Z,992.86
2018-02-08T12:42:29.198Z,992.88
2018-02-08T12:43:29.192Z,992.88
2018-02-08T12:44:29.196Z,992.85
2018-02-08T12:45:29.173Z,992.87
2018-02-08T12:46:29.164Z,992.85
2018-02-08T12:47:29.154Z,992.83
2018-02-08T12:48:29.146Z,992.86
2018-02-08T12:49:29.137Z,992.84
2018-02-08T12:50:29.129Z,992.8
2018-02-08T12:51:29.129Z,992.82
2018-02-08T12:52:29.112Z,992.83
2018-02-08T12:53:29.104Z,992.82
2018-02-08T12:54:33.601Z,992.74
2018-02-08T12:55:29.096Z,992.76
2018-02-08T12:56:29.081Z,992.77
2018-02-08T12:57:29.072Z,992.76
2018-02-08T12:58:29.068Z,992.72
2018-02-08T12:59:29.058Z,992.74
2018-02-08T13:00:29.104Z,992.77